CW9197 Juva FI current weather conditions

sailwx.info

Wind from 349 at 0 knots gusting 3

Air temperature 12.2° C
Dewpoint 2.7° C

Last reported at 2018-May-23 20:00 UTC.
Time now 2018-May-23 20:21 UTC

Location: N 61°53' E 027°53'.
View on Google Maps.

See reports from other nearby stations

  
Tides and Currents Weather Stations Pressure Air Temp Water Temp Dewpoint Dewpoint Depression Visibility Wind Speed Wind Dir Waves Ship Positions
date/time (UTC)wind fromknots sea level pressurealtimeterstation pressurevisibilityair tempwater tempwave heightnotes
2018-May-23 20:10 341 12.2
2018-May-23 20:00 349 0 gusting 3 12.2
2018-May-23 19:50 12.8
2018-May-23 19:40 352 13.3
2018-May-23 19:30 031 13.3
2018-May-23 19:20 018 0 gusting 2 13.9
2018-May-23 19:10 011 14.4
2018-May-23 19:00 004 14.4
2018-May-23 18:50 007 15.0
2018-May-23 18:40 033 0 gusting 1 15.6
2018-May-23 18:30 023 1 gusting 6 15.6
2018-May-23 18:20 019 1 gusting 4 16.1
2018-May-23 18:10 042 2 gusting 11 16.1
2018-May-23 18:00 034 2 gusting 7 16.7
2018-May-23 17:50 032 3 gusting 7 16.7
2018-May-23 17:40 040 3 gusting 10 17.2
2018-May-23 17:30 010 3 gusting 8 17.8
2018-May-23 17:20 034 2 gusting 8 17.8
2018-May-23 17:10 003 3 gusting 9 18.3
2018-May-23 17:00 350 2 gusting 6 18.3
2018-May-23 16:50 341 2 gusting 11 18.9
2018-May-23 16:40 349 3 gusting 8 18.9
2018-May-23 16:30 347 3 gusting 12 19.4
2018-May-23 16:20 351 2 gusting 8 19.4
2018-May-23 16:10 348 4 gusting 11 19.4
2018-May-23 16:00 330 3 gusting 10 20.0
2018-May-23 15:50 340 2 gusting 9 20.0
2018-May-23 15:40 344 4 gusting 9 20.0
2018-May-23 15:30 359 3 gusting 8 20.0
2018-May-23 15:20 344 3 gusting 8 20.6
2018-May-23 15:10 353 1 gusting 5 20.6
2018-May-23 15:00 321 4 gusting 12 20.6
2018-May-23 14:50 20.6
2018-May-23 14:40 341 3 gusting 8 21.1
2018-May-23 14:30 344 2 gusting 7 21.1
2018-May-23 14:20 338 3 gusting 7 21.1
2018-May-23 14:10 015 2 gusting 6 21.1
2018-May-23 14:00 353 2 gusting 11 21.1
2018-May-23 13:50 002 3 gusting 9 21.1
2018-May-23 13:40 343 6 gusting 13 21.1
2018-May-23 13:30 008 4 gusting 12 21.7
2018-May-23 13:20 346 4 gusting 14 21.7
2018-May-23 13:10 327 5 gusting 13 21.7
2018-May-23 13:00 339 3 gusting 8 22.2
2018-May-23 12:50 353 3 gusting 13 21.7
2018-May-23 12:40 010 4 gusting 9 21.7
2018-May-23 12:30 354 3 gusting 10 22.2
2018-May-23 12:20 005 5 gusting 13 22.8
2018-May-23 12:10 339 5 gusting 13 23.3
2018-May-23 12:00 306 3 gusting 9 23.3
2018-May-23 11:50 334 2 gusting 8 23.9
2018-May-23 11:40 273 4 gusting 11 23.9
2018-May-23 11:30 232 2 gusting 8 23.9
2018-May-23 11:20 263 3 gusting 13 23.9
2018-May-23 11:10 295 4 gusting 9 23.9
2018-May-23 11:00 297 3 gusting 7 24.4
2018-May-23 10:50 296 4 gusting 11 23.9
2018-May-23 10:40 256 3 gusting 8 24.4
2018-May-23 10:30 268 3 gusting 8 24.4
2018-May-23 10:20 288 4 gusting 10 23.9
2018-May-23 10:10 284 3 gusting 10 23.3
2018-May-23 10:00 291 2 gusting 7 23.3
2018-May-23 09:50 281 3 gusting 13 23.9
2018-May-23 09:40 257 3 gusting 12 23.9
2018-May-23 09:30 284 3 gusting 9 23.3
2018-May-23 09:20 245 1 gusting 3 24.4
2018-May-23 09:10 225 1 gusting 4 25.0
2018-May-23 09:00 242 1 gusting 3 23.9
2018-May-23 08:50 252 0 gusting 3 23.9
2018-May-23 08:40 241 1 gusting 4 23.3
2018-May-23 08:30 227 1 gusting 3 22.8
2018-May-23 08:20 270 1 gusting 6 22.2
2018-May-23 08:10 304 1 gusting 5 22.2
2018-May-23 08:00 224 0 gusting 2 23.3
2018-May-23 07:50 265 0 gusting 3 23.3
2018-May-23 07:40 232 1 gusting 4 22.8
2018-May-23 07:30 233 1 gusting 3 22.2
2018-May-23 07:20 249 0 gusting 4 22.2
2018-May-23 07:10 256 1 gusting 4 22.2
2018-May-23 07:00 247 1 gusting 3 22.2
2018-May-23 06:50 261 0 gusting 4 21.1
2018-May-23 06:40 239 0 gusting 4 20.6
2018-May-23 06:30 254 0 gusting 2 20.0
2018-May-23 06:20 249 0 gusting 3 19.4
2018-May-23 06:10 259 17.8
2018-May-23 06:00 275 17.2
2018-May-23 05:50 248 17.2
2018-May-23 05:40 206 17.2
2018-May-23 05:30 215 17.8
2018-May-23 05:20 196 17.8
2018-May-23 05:10 185 16.7
2018-May-23 05:00 170 0 gusting 2 16.1
2018-May-23 04:50 235 16.1
2018-May-23 04:40 205 0 gusting 3 16.1
2018-May-23 04:30 318 0 gusting 3 16.7
2018-May-23 04:20 257 17.2
2018-May-23 04:10 235 17.8
2018-May-23 04:00 224 0 gusting 2 17.8
2018-May-23 03:50 232 0 gusting 1 17.2
2018-May-23 03:40 217 0 gusting 1 15.6
2018-May-23 03:30 212 0 gusting 1 15.0
2018-May-23 03:20 213 0 gusting 1 14.4
2018-May-23 03:10 217 0 gusting 1 14.4
2018-May-23 03:00 230 14.4
2018-May-23 02:50 217 0 gusting 2 14.4
2018-May-23 02:40 215 14.4
2018-May-23 02:30 219 0 gusting 2 13.9
2018-May-23 02:20 221 0 gusting 1 13.9
2018-May-23 02:10 218 1 gusting 2 13.9
2018-May-23 02:00 215 0 gusting 1 14.4
2018-May-23 01:50 216 14.4
2018-May-23 01:40 223 0 gusting 1 14.4
2018-May-23 01:30 205 14.4
2018-May-23 01:20 212 14.4
2018-May-23 01:10 219 14.4
2018-May-23 01:00 218 15.0
2018-May-23 00:50 229 0 gusting 1 15.0
2018-May-23 00:40 216 0 gusting 1 15.0
2018-May-23 00:30 217 15.0
2018-May-23 00:20 220 1 gusting 2 15.0
2018-May-23 00:10 212 1 gusting 2 15.6
2018-May-23 00:00 215 15.6
2018-May-22 23:50 219 0 gusting 1 15.6
2018-May-22 23:40 220 0 gusting 1 15.6
2018-May-22 23:30 220 1 gusting 1 15.6
2018-May-22 23:20 222 0 gusting 1 15.6
2018-May-22 23:10 217 0 gusting 1 15.6
2018-May-22 23:00 214 0 gusting 1 15.6
2018-May-22 22:50 226 15.6
2018-May-22 22:40 218 15.6
2018-May-22 22:30 194 15.6
2018-May-22 22:20 221 15.6
2018-May-22 22:10 201 15.6
2018-May-22 22:00 191 15.6
2018-May-22 21:50 16.1
2018-May-22 21:40 16.1
2018-May-22 21:30 16.1
2018-May-22 21:20 16.1
2018-May-22 21:10 16.1
2018-May-22 21:00 16.7
2018-May-22 20:50 16.7
2018-May-22 20:40 16.7
2018-May-22 20:30 193 17.2
2018-May-22 20:20 209 17.2
2018-May-22 20:10 191 17.8
2018-May-22 20:00 210 17.8
2018-May-22 19:50 244 17.8
2018-May-22 19:40 231 17.8
2018-May-22 19:30 227 0 gusting 2 17.8
2018-May-22 19:20 216 1 gusting 3 17.8
2018-May-22 19:10 224 0 gusting 1 18.3
2018-May-22 19:00 202 18.9
2018-May-22 18:50 202 19.4
2018-May-22 18:40 20.0
2018-May-22 18:30 20.0
2018-May-22 18:20 20.6
2018-May-22 18:10 20.6
2018-May-22 18:00 199 21.1
2018-May-22 17:50 255 21.1
2018-May-22 17:40 209 0 gusting 2 21.1
2018-May-22 17:30 275 21.1
2018-May-22 17:20 275 21.1
2018-May-22 17:10 331 21.1
2018-May-22 17:00 321 21.1
2018-May-22 16:50 259 21.1
2018-May-22 16:40 216 0 gusting 1 21.7
2018-May-22 16:30 207 1 gusting 4 21.7
2018-May-22 16:20 206 0 gusting 1 21.7
2018-May-22 16:10 201 0 gusting 1 22.2
2018-May-22 16:00 203 1 gusting 2 22.2
2018-May-22 15:50 212 0 gusting 2 22.8
2018-May-22 15:40 207 0 gusting 2 22.8
2018-May-22 15:30 223 0 gusting 1 23.3
2018-May-22 15:20 236 0 gusting 1 23.3
2018-May-22 15:10 214 0 gusting 1 23.3
2018-May-22 15:00 192 1 gusting 5 23.3
2018-May-22 14:50 203 0 gusting 2 23.9
2018-May-22 14:40 224 0 gusting 3 23.9
2018-May-22 14:30 206 1 gusting 2 23.9
2018-May-22 14:20 262 0 gusting 5 23.9
2018-May-22 14:10 221 2 gusting 4 23.9
2018-May-22 14:00 203 0 gusting 2 24.4
2018-May-22 13:50 250 1 gusting 3 24.4
2018-May-22 13:40 269 1 gusting 5 24.4
2018-May-22 13:30 219 1 gusting 4 24.4
2018-May-22 13:20 207 1 gusting 3 24.4
2018-May-22 13:10 230 1 gusting 4 24.4
2018-May-22 13:00 219 0 gusting 2 24.4
2018-May-22 12:50 184 0 gusting 3 25.0
2018-May-22 12:40 219 1 gusting 4 25.0
2018-May-22 12:30 219 1 gusting 4 25.0
2018-May-22 12:20 273 1 gusting 5 25.0
2018-May-22 12:10 247 0 gusting 3 25.6
2018-May-22 12:00 205 2 gusting 4 25.6
2018-May-22 11:50 219 1 gusting 4 25.6
2018-May-22 11:40 206 1 gusting 4 25.6
2018-May-22 11:30 200 1 gusting 5 25.6
2018-May-22 11:20 254 0 gusting 2 25.6
2018-May-22 11:10 241 1 gusting 4 26.1
2018-May-22 11:00 224 1 gusting 4 26.7
2018-May-22 10:50 210 2 gusting 6 26.7
2018-May-22 10:40 213 1 gusting 4 26.7
2018-May-22 10:30 219 1 gusting 4 26.1
2018-May-22 10:20 212 1 gusting 3 26.1
2018-May-22 10:10 240 0 gusting 2 26.1
2018-May-22 10:00 189 1 gusting 4 26.7
2018-May-22 09:50 199 1 gusting 4 26.1
2018-May-22 09:40 218 1 gusting 5 26.7
2018-May-22 09:30 221 1 gusting 4 26.1
2018-May-22 09:20 196 1 gusting 4 26.1
2018-May-22 09:10 219 1 gusting 5 26.1
2018-May-22 09:00 219 1 gusting 3 26.1
2018-May-22 08:50 206 1 gusting 4 25.6
2018-May-22 08:40 207 2 gusting 5 25.6
2018-May-22 08:30 219 2 gusting 5 25.6
2018-May-22 08:20 216 1 gusting 5 26.1
2018-May-22 08:10 209 1 gusting 5 26.1
2018-May-22 08:00 215 1 gusting 3 25.6
2018-May-22 07:50 218 1 gusting 4 25.6
2018-May-22 07:40 212 1 gusting 3 25.0
2018-May-22 07:30 230 2 gusting 4 24.4
2018-May-22 07:20 199 1 gusting 3 24.4
2018-May-22 07:10 215 1 gusting 2 25.0
2018-May-22 07:00 210 1 gusting 3 25.0
2018-May-22 06:50 206 2 gusting 4 25.0
2018-May-22 06:40 213 1 gusting 3 25.0
2018-May-22 06:30 216 0 gusting 2 24.4
2018-May-22 06:20 212 1 gusting 2 23.9
2018-May-22 06:10 188 0 gusting 2 23.3
2018-May-22 06:00 187 0 gusting 2 22.8
2018-May-22 05:50 181 0 gusting 1 22.8
2018-May-22 05:40 192 0 gusting 1 22.2
2018-May-22 05:30 216 0 gusting 1 22.2
2018-May-22 05:20 201 21.7
2018-May-22 05:10 211 21.1
2018-May-22 05:00 181 21.1
2018-May-22 04:50 193 20.6
2018-May-22 04:40 202 20.0
2018-May-22 04:30 194 19.4
2018-May-22 04:20 211 18.9
2018-May-22 04:10 202 18.3
2018-May-22 04:00 225 17.2
2018-May-22 03:50 17.2
2018-May-22 03:40 257 16.7
2018-May-22 03:30 16.1
2018-May-22 03:20 225 15.0
2018-May-22 03:10 225 0 gusting 1 15.0
2018-May-22 03:00 225 0 gusting 1 15.0
2018-May-22 02:50 225 13.9
2018-May-22 02:40 225 0 gusting 1 13.3
2018-May-22 02:30 222 12.8
2018-May-22 02:20 225 0 gusting 1 12.2
2018-May-22 02:10 225 0 gusting 1 11.7
2018-May-22 02:00 224 0 gusting 1 11.7
2018-May-22 01:50 220 0 gusting 1 11.7
2018-May-22 01:40 220 0 gusting 1 11.7
2018-May-22 01:30 226 0 gusting 0 11.7
2018-May-22 01:20 221 0 gusting 1 11.7
2018-May-22 01:10 207 0 gusting 1 11.7
2018-May-22 01:00 224 0 gusting 1 11.7
2018-May-22 00:50 221 0 gusting 1 12.2
2018-May-22 00:40 220 0 gusting 1 12.2
2018-May-22 00:30 221 0 gusting 1 12.2
2018-May-22 00:20 223 0 gusting 1 12.2
2018-May-22 00:10 225 0 gusting 1 12.8
2018-May-22 00:00 221 0 gusting 1 12.8
2018-May-21 23:50 224 0 gusting 1 12.8
2018-May-21 23:40 221 1 gusting 2 12.8
2018-May-21 23:30 221 0 gusting 1 12.8
2018-May-21 23:20 226 0 gusting 1 13.3
2018-May-21 23:10 220 0 gusting 1 13.3
2018-May-21 23:00 224 0 gusting 1 13.3
2018-May-21 22:50 218 0 gusting 1 13.3
2018-May-21 22:40 224 1 gusting 1 13.9
2018-May-21 22:30 228 0 gusting 0 13.9
2018-May-21 22:20 214 0 gusting 1 13.9
2018-May-21 22:10 220 0 gusting 1 13.9
2018-May-21 22:00 224 0 gusting 2 13.9
2018-May-21 21:50 226 0 gusting 1 14.4
2018-May-21 21:40 226 0 gusting 1 13.9
2018-May-21 21:30 223 0 gusting 1 13.9
2018-May-21 21:20 224 0 gusting 1 14.4
2018-May-21 21:10 218 0 gusting 1 14.4
2018-May-21 21:00 212 1 gusting 1 14.4
2018-May-21 20:50 203 0 gusting 5 15.6
2018-May-21 20:40 225 0 gusting 0 16.1
2018-May-21 20:30 230 16.7
2018-May-21 20:20 17.2
2018-May-21 20:10 17.2
2018-May-21 20:00 225 17.2